sensor_id;sensor_type;location;lat;lon;timestamp;temperature;humidity
34815;DHT22;21030;53.912;15.214;2024-01-30T00:02:21;30.60;19.20
34815;DHT22;21030;53.912;15.214;2024-01-30T00:04:49;30.50;19.10
34815;DHT22;21030;53.912;15.214;2024-01-30T00:07:16;30.60;19.00
34815;DHT22;21030;53.912;15.214;2024-01-30T00:09:45;30.60;19.10
34815;DHT22;21030;53.912;15.214;2024-01-30T00:12:13;30.40;19.30
34815;DHT22;21030;53.912;15.214;2024-01-30T00:14:42;30.20;19.30
34815;DHT22;21030;53.912;15.214;2024-01-30T00:17:12;30.10;19.20
34815;DHT22;21030;53.912;15.214;2024-01-30T00:19:39;30.10;19.30
34815;DHT22;21030;53.912;15.214;2024-01-30T00:22:07;30.40;19.30
34815;DHT22;21030;53.912;15.214;2024-01-30T00:24:34;30.60;19.10
34815;DHT22;21030;53.912;15.214;2024-01-30T00:27:01;30.70;18.90
34815;DHT22;21030;53.912;15.214;2024-01-30T00:29:28;30.90;18.80
34815;DHT22;21030;53.912;15.214;2024-01-30T00:31:57;30.70;18.90
34815;DHT22;21030;53.912;15.214;2024-01-30T00:34:24;30.60;19.10
34815;DHT22;21030;53.912;15.214;2024-01-30T00:36:52;30.20;19.20
34815;DHT22;21030;53.912;15.214;2024-01-30T00:39:19;29.70;19.60
34815;DHT22;21030;53.912;15.214;2024-01-30T00:41:46;29.40;19.60
34815;DHT22;21030;53.912;15.214;2024-01-30T00:44:13;29.50;19.70
34815;DHT22;21030;53.912;15.214;2024-01-30T00:46:40;29.90;19.50
34815;DHT22;21030;53.912;15.214;2024-01-30T00:49:07;30.30;19.30
34815;DHT22;21030;53.912;15.214;2024-01-30T00:51:35;30.10;19.80
34815;DHT22;21030;53.912;15.214;2024-01-30T00:54:02;30.00;19.30
34815;DHT22;21030;53.912;15.214;2024-01-30T00:56:29;29.20;19.70
34815;DHT22;21030;53.912;15.214;2024-01-30T00:58:57;28.50;20.10
34815;DHT22;21030;53.912;15.214;2024-01-30T01:01:24;28.10;20.40
34815;DHT22;21030;53.912;15.214;2024-01-30T01:03:51;28.10;20.60
34815;DHT22;21030;53.912;15.214;2024-01-30T01:06:19;28.00;20.40
34815;DHT22;21030;53.912;15.214;2024-01-30T01:08:46;28.10;20.70
34815;DHT22;21030;53.912;15.214;2024-01-30T01:11:13;28.40;20.60
34815;DHT22;21030;53.912;15.214;2024-01-30T01:13:41;28.70;20.20
34815;DHT22;21030;53.912;15.214;2024-01-30T01:16:08;29.00;20.10
34815;DHT22;21030;53.912;15.214;2024-01-30T01:18:35;29.60;19.70
34815;DHT22;21030;53.912;15.214;2024-01-30T01:21:03;30.00;19.50
34815;DHT22;21030;53.912;15.214;2024-01-30T01:23:30;30.10;19.40
34815;DHT22;21030;53.912;15.214;2024-01-30T01:25:57;29.90;19.30
34815;DHT22;21030;53.912;15.214;2024-01-30T01:28:27;29.70;19.40
34815;DHT22;21030;53.912;15.214;2024-01-30T01:30:54;30.00;19.30
34815;DHT22;21030;53.912;15.214;2024-01-30T01:33:26;30.10;19.20
34815;DHT22;21030;53.912;15.214;2024-01-30T01:35:53;29.60;19.20
34815;DHT22;21030;53.912;15.214;2024-01-30T01:38:21;29.70;19.30
34815;DHT22;21030;53.912;15.214;2024-01-30T01:40:48;29.60;19.30
34815;DHT22;21030;53.912;15.214;2024-01-30T01:43:15;29.70;19.40
34815;DHT22;21030;53.912;15.214;2024-01-30T01:45:42;29.40;19.50
34815;DHT22;21030;53.912;15.214;2024-01-30T01:48:10;29.60;19.40
34815;DHT22;21030;53.912;15.214;2024-01-30T01:50:38;29.80;19.40
34815;DHT22;21030;53.912;15.214;2024-01-30T01:53:07;30.10;19.30
34815;DHT22;21030;53.912;15.214;2024-01-30T01:55:35;30.10;19.20
34815;DHT22;21030;53.912;15.214;2024-01-30T01:58:03;30.30;19.00
34815;DHT22;21030;53.912;15.214;2024-01-30T02:00:30;30.50;19.10
34815;DHT22;21030;53.912;15.214;2024-01-30T02:02:58;30.40;19.00
34815;DHT22;21030;53.912;15.214;2024-01-30T02:05:26;30.30;19.10
34815;DHT22;21030;53.912;15.214;2024-01-30T02:07:54;30.20;19.20
34815;DHT22;21030;53.912;15.214;2024-01-30T02:10:22;30.40;19.20
34815;DHT22;21030;53.912;15.214;2024-01-30T02:12:49;30.50;19.00
34815;DHT22;21030;53.912;15.214;2024-01-30T02:15:17;30.60;18.90
34815;DHT22;21030;53.912;15.214;2024-01-30T02:17:44;30.80;18.80
34815;DHT22;21030;53.912;15.214;2024-01-30T02:20:11;30.90;18.70
34815;DHT22;21030;53.912;15.214;2024-01-30T02:22:40;31.00;18.70
34815;DHT22;21030;53.912;15.214;2024-01-30T02:25:08;30.80;18.70
34815;DHT22;21030;53.912;15.214;2024-01-30T02:27:35;30.70;18.70
34815;DHT22;21030;53.912;15.214;2024-01-30T02:30:02;30.80;18.80
34815;DHT22;21030;53.912;15.214;2024-01-30T02:32:30;30.50;18.90
34815;DHT22;21030;53.912;15.214;2024-01-30T02:34:57;30.40;19.00
34815;DHT22;21030;53.912;15.214;2024-01-30T02:37:25;30.10;19.10
34815;DHT22;21030;53.912;15.214;2024-01-30T02:39:52;30.30;19.10
34815;DHT22;21030;53.912;15.214;2024-01-30T02:42:19;30.40;18.90
34815;DHT22;21030;53.912;15.214;2024-01-30T02:44:46;30.60;19.00
34815;DHT22;21030;53.912;15.214;2024-01-30T02:47:14;30.40;19.50
34815;DHT22;21030;53.912;15.214;2024-01-30T02:49:41;30.40;19.00
34815;DHT22;21030;53.912;15.214;2024-01-30T02:52:08;29.90;19.10
34815;DHT22;21030;53.912;15.214;2024-01-30T02:54:35;29.70;19.40
34815;DHT22;21030;53.912;15.214;2024-01-30T02:57:03;29.10;19.50
34815;DHT22;21030;53.912;15.214;2024-01-30T02:59:30;28.20;20.10
34815;DHT22;21030;53.912;15.214;2024-01-30T03:02:00;27.60;20.80
34815;DHT22;21030;53.912;15.214;2024-01-30T03:04:27;27.00;21.20
34815;DHT22;21030;53.912;15.214;2024-01-30T03:06:57;26.40;21.60
34815;DHT22;21030;53.912;15.214;2024-01-30T03:09:25;25.90;21.90
34815;DHT22;21030;53.912;15.214;2024-01-30T03:11:52;25.90;22.40
34815;DHT22;21030;53.912;15.214;2024-01-30T03:14:19;25.70;22.30
34815;DHT22;21030;53.912;15.214;2024-01-30T03:16:46;25.60;22.50
34815;DHT22;21030;53.912;15.214;2024-01-30T03:19:13;25.20;22.80
34815;DHT22;21030;53.912;15.214;2024-01-30T03:21:40;25.50;22.70
34815;DHT22;21030;53.912;15.214;2024-01-30T03:24:07;25.20;22.90
34815;DHT22;21030;53.912;15.214;2024-01-30T03:26:35;25.10;23.00
34815;DHT22;21030;53.912;15.214;2024-01-30T03:29:03;25.00;23.10
34815;DHT22;21030;53.912;15.214;2024-01-30T03:31:30;25.00;23.00
34815;DHT22;21030;53.912;15.214;2024-01-30T03:33:57;25.10;23.00
34815;DHT22;21030;53.912;15.214;2024-01-30T03:36:25;24.80;23.30
34815;DHT22;21030;53.912;15.214;2024-01-30T03:38:52;24.60;23.50
34815;DHT22;21030;53.912;15.214;2024-01-30T03:41:19;24.70;23.50
34815;DHT22;21030;53.912;15.214;2024-01-30T03:43:47;25.00;23.30
34815;DHT22;21030;53.912;15.214;2024-01-30T03:46:14;25.30;23.10
34815;DHT22;21030;53.912;15.214;2024-01-30T03:48:41;25.70;22.70
34815;DHT22;21030;53.912;15.214;2024-01-30T03:51:09;25.90;22.60
34815;DHT22;21030;53.912;15.214;2024-01-30T03:53:44;25.80;22.70
34815;DHT22;21030;53.912;15.214;2024-01-30T03:56:13;24.80;23.20
34815;DHT22;21030;53.912;15.214;2024-01-30T03:58:41;24.50;23.70
34815;DHT22;21030;53.912;15.214;2024-01-30T04:01:12;23.50;24.50
34815;DHT22;21030;53.912;15.214;2024-01-30T04:03:40;23.30;25.10
34815;DHT22;21030;53.912;15.214;2024-01-30T04:06:08;22.80;25.30
34815;DHT22;21030;53.912;15.214;2024-01-30T04:08:35;22.20;26.00
34815;DHT22;21030;53.912;15.214;2024-01-30T04:11:05;22.30;26.30
34815;DHT22;21030;53.912;15.214;2024-01-30T04:13:34;22.40;25.90
34815;DHT22;21030;53.912;15.214;2024-01-30T04:16:02;22.80;25.80
34815;DHT22;21030;53.912;15.214;2024-01-30T04:18:30;23.50;25.10
34815;DHT22;21030;53.912;15.214;2024-01-30T04:20:57;23.80;24.80
34815;DHT22;21030;53.912;15.214;2024-01-30T04:23:24;24.30;24.30
34815;DHT22;21030;53.912;15.214;2024-01-30T04:25:51;24.40;24.10
34815;DHT22;21030;53.912;15.214;2024-01-30T04:28:18;24.50;23.80
34815;DHT22;21030;53.912;15.214;2024-01-30T04:30:47;24.60;24.00
34815;DHT22;21030;53.912;15.214;2024-01-30T04:33:14;24.80;23.70
34815;DHT22;21030;53.912;15.214;2024-01-30T04:35:42;24.90;23.50
34815;DHT22;21030;53.912;15.214;2024-01-30T04:38:09;25.70;23.10
34815;DHT22;21030;53.912;15.214;2024-01-30T04:40:36;26.30;22.60
34815;DHT22;21030;53.912;15.214;2024-01-30T04:43:03;26.10;22.30
34815;DHT22;21030;53.912;15.214;2024-01-30T04:45:31;26.20;22.20
34815;DHT22;21030;53.912;15.214;2024-01-30T04:47:58;26.30;22.20
34815;DHT22;21030;53.912;15.214;2024-01-30T04:50:25;26.70;22.10
34815;DHT22;21030;53.912;15.214;2024-01-30T04:52:53;27.00;21.90
34815;DHT22;21030;53.912;15.214;2024-01-30T04:55:20;26.70;21.90
34815;DHT22;21030;53.912;15.214;2024-01-30T04:57:49;26.70;22.00
34815;DHT22;21030;53.912;15.214;2024-01-30T05:00:16;26.60;21.80
34815;DHT22;21030;53.912;15.214;2024-01-30T05:02:44;26.60;21.90
34815;DHT22;21030;53.912;15.214;2024-01-30T05:05:11;26.40;22.20
34815;DHT22;21030;53.912;15.214;2024-01-30T05:07:41;26.40;22.00
34815;DHT22;21030;53.912;15.214;2024-01-30T05:10:08;26.70;22.00
34815;DHT22;21030;53.912;15.214;2024-01-30T05:12:35;26.70;21.90
34815;DHT22;21030;53.912;15.214;2024-01-30T05:15:04;26.90;21.90
34815;DHT22;21030;53.912;15.214;2024-01-30T05:17:31;26.40;21.90
34815;DHT22;21030;53.912;15.214;2024-01-30T05:19:58;26.30;22.20
34815;DHT22;21030;53.912;15.214;2024-01-30T05:22:26;25.80;22.50
34815;DHT22;21030;53.912;15.214;2024-01-30T05:24:54;25.50;22.90
34815;DHT22;21030;53.912;15.214;2024-01-30T05:27:21;25.40;23.00
34815;DHT22;21030;53.912;15.214;2024-01-30T05:29:49;25.30;23.00
34815;DHT22;21030;53.912;15.214;2024-01-30T05:32:16;26.00;22.60
34815;DHT22;21030;53.912;15.214;2024-01-30T05:34:43;26.20;22.50
34815;DHT22;21030;53.912;15.214;2024-01-30T05:37:10;26.00;22.40
34815;DHT22;21030;53.912;15.214;2024-01-30T05:39:41;26.00;22.50
34815;DHT22;21030;53.912;15.214;2024-01-30T05:42:09;25.70;22.90
34815;DHT22;21030;53.912;15.214;2024-01-30T05:44:37;26.00;22.60
34815;DHT22;21030;53.912;15.214;2024-01-30T05:47:04;26.40;22.20
34815;DHT22;21030;53.912;15.214;2024-01-30T05:49:31;26.90;22.00
34815;DHT22;21030;53.912;15.214;2024-01-30T05:51:59;27.20;21.90
34815;DHT22;21030;53.912;15.214;2024-01-30T05:54:26;26.80;22.00
34815;DHT22;21030;53.912;15.214;2024-01-30T05:56:53;26.40;22.10
34815;DHT22;21030;53.912;15.214;2024-01-30T05:59:20;26.30;22.30
34815;DHT22;21030;53.912;15.214;2024-01-30T06:01:48;26.20;22.50
34815;DHT22;21030;53.912;15.214;2024-01-30T06:04:16;26.40;22.40
34815;DHT22;21030;53.912;15.214;2024-01-30T06:06:43;26.60;22.10
34815;DHT22;21030;53.912;15.214;2024-01-30T06:09:10;27.00;21.80
34815;DHT22;21030;53.912;15.214;2024-01-30T06:11:39;27.40;21.40
34815;DHT22;21030;53.912;15.214;2024-01-30T06:14:07;27.60;21.30
34815;DHT22;21030;53.912;15.214;2024-01-30T06:16:34;28.30;20.90
34815;DHT22;21030;53.912;15.214;2024-01-30T06:19:01;28.60;20.50
34815;DHT22;21030;53.912;15.214;2024-01-30T06:21:28;28.90;20.50
34815;DHT22;21030;53.912;15.214;2024-01-30T06:23:57;29.00;20.10
34815;DHT22;21030;53.912;15.214;2024-01-30T06:26:24;29.30;20.00
34815;DHT22;21030;53.912;15.214;2024-01-30T06:28:51;29.00;20.10
34815;DHT22;21030;53.912;15.214;2024-01-30T06:31:18;29.00;20.00
34815;DHT22;21030;53.912;15.214;2024-01-30T06:33:49;29.20;19.90
34815;DHT22;21030;53.912;15.214;2024-01-30T06:36:17;29.20;19.90
34815;DHT22;21030;53.912;15.214;2024-01-30T06:38:44;29.70;19.80
34815;DHT22;21030;53.912;15.214;2024-01-30T06:41:11;29.90;19.60
34815;DHT22;21030;53.912;15.214;2024-01-30T06:43:38;30.00;19.60
34815;DHT22;21030;53.912;15.214;2024-01-30T06:46:06;30.10;19.50
34815;DHT22;21030;53.912;15.214;2024-01-30T06:48:34;30.20;19.30
34815;DHT22;21030;53.912;15.214;2024-01-30T06:51:01;29.90;19.40
34815;DHT22;21030;53.912;15.214;2024-01-30T06:53:28;29.60;19.60
34815;DHT22;21030;53.912;15.214;2024-01-30T06:55:55;29.00;20.00
34815;DHT22;21030;53.912;15.214;2024-01-30T06:58:22;28.50;20.40
34815;DHT22;21030;53.912;15.214;2024-01-30T07:00:50;28.00;20.50
34815;DHT22;21030;53.912;15.214;2024-01-30T07:03:17;28.60;20.60
34815;DHT22;21030;53.912;15.214;2024-01-30T07:05:44;28.80;20.20
34815;DHT22;21030;53.912;15.214;2024-01-30T07:08:11;28.90;20.30
34815;DHT22;21030;53.912;15.214;2024-01-30T07:10:38;28.70;20.30
34815;DHT22;21030;53.912;15.214;2024-01-30T07:13:05;28.50;20.40
34815;DHT22;21030;53.912;15.214;2024-01-30T07:15:33;28.70;20.40
34815;DHT22;21030;53.912;15.214;2024-01-30T07:18:00;29.00;20.20
34815;DHT22;21030;53.912;15.214;2024-01-30T07:20:27;29.00;20.00
34815;DHT22;21030;53.912;15.214;2024-01-30T07:22:58;29.60;19.90
34815;DHT22;21030;53.912;15.214;2024-01-30T07:25:25;30.10;19.60
34815;DHT22;21030;53.912;15.214;2024-01-30T07:27:54;30.20;19.40
34815;DHT22;21030;53.912;15.214;2024-01-30T07:30:21;30.40;19.40
34815;DHT22;21030;53.912;15.214;2024-01-30T07:32:50;30.40;19.30
34815;DHT22;21030;53.912;15.214;2024-01-30T07:35:17;30.60;19.10
34815;DHT22;21030;53.912;15.214;2024-01-30T07:37:45;30.70;19.10
34815;DHT22;21030;53.912;15.214;2024-01-30T07:40:12;30.90;19.10
34815;DHT22;21030;53.912;15.214;2024-01-30T07:42:40;31.00;19.00
34815;DHT22;21030;53.912;15.214;2024-01-30T07:45:07;31.10;18.90
34815;DHT22;21030;53.912;15.214;2024-01-30T07:47:34;30.90;18.90
34815;DHT22;21030;53.912;15.214;2024-01-30T07:50:02;30.80;19.00
34815;DHT22;21030;53.912;15.214;2024-01-30T07:52:29;30.80;19.10
34815;DHT22;21030;53.912;15.214;2024-01-30T07:54:56;30.80;19.10
34815;DHT22;21030;53.912;15.214;2024-01-30T07:57:24;30.60;19.20
34815;DHT22;21030;53.912;15.214;2024-01-30T07:59:51;30.70;19.20
34815;DHT22;21030;53.912;15.214;2024-01-30T08:02:18;30.30;19.50
34815;DHT22;21030;53.912;15.214;2024-01-30T08:04:45;30.00;19.50
34815;DHT22;21030;53.912;15.214;2024-01-30T08:07:15;30.60;19.40
34815;DHT22;21030;53.912;15.214;2024-01-30T08:09:44;30.70;19.30
34815;DHT22;21030;53.912;15.214;2024-01-30T08:12:11;31.20;19.10
34815;DHT22;21030;53.912;15.214;2024-01-30T08:14:40;31.00;18.90
34815;DHT22;21030;53.912;15.214;2024-01-30T08:17:08;31.30;18.90
34815;DHT22;21030;53.912;15.214;2024-01-30T08:19:35;31.60;18.90
34815;DHT22;21030;53.912;15.214;2024-01-30T08:22:02;31.80;18.70
34815;DHT22;21030;53.912;15.214;2024-01-30T08:24:29;31.80;18.60
34815;DHT22;21030;53.912;15.214;2024-01-30T08:26:56;32.10;18.50
34815;DHT22;21030;53.912;15.214;2024-01-30T08:29:25;32.10;18.60
34815;DHT22;21030;53.912;15.214;2024-01-30T08:31:52;31.90;18.80
34815;DHT22;21030;53.912;15.214;2024-01-30T08:34:19;31.10;18.30
34815;DHT22;21030;53.912;15.214;2024-01-30T08:36:46;31.80;18.70
34815;DHT22;21030;53.912;15.214;2024-01-30T08:39:13;31.60;19.30
34815;DHT22;21030;53.912;15.214;2024-01-30T08:41:41;31.70;18.80
34815;DHT22;21030;53.912;15.214;2024-01-30T08:44:08;31.80;18.80
34815;DHT22;21030;53.912;15.214;2024-01-30T08:46:37;31.50;18.70
34815;DHT22;21030;53.912;15.214;2024-01-30T08:49:04;31.20;18.80
34815;DHT22;21030;53.912;15.214;2024-01-30T08:51:32;30.40;19.00
34815;DHT22;21030;53.912;15.214;2024-01-30T08:53:59;29.90;19.10
34815;DHT22;21030;53.912;15.214;2024-01-30T08:56:26;30.20;19.40
34815;DHT22;21030;53.912;15.214;2024-01-30T08:58:55;30.70;19.50
34815;DHT22;21030;53.912;15.214;2024-01-30T09:01:21;30.70;19.20
34815;DHT22;21030;53.912;15.214;2024-01-30T09:03:49;30.10;19.60
34815;DHT22;21030;53.912;15.214;2024-01-30T09:06:16;30.40;19.40
34815;DHT22;21030;53.912;15.214;2024-01-30T09:08:43;29.60;19.30
34815;DHT22;21030;53.912;15.214;2024-01-30T09:11:14;29.80;19.90
34815;DHT22;21030;53.912;15.214;2024-01-30T09:13:42;30.30;19.80
34815;DHT22;21030;53.912;15.214;2024-01-30T09:16:10;30.50;19.70
34815;DHT22;21030;53.912;15.214;2024-01-30T09:18:37;29.80;19.50
34815;DHT22;21030;53.912;15.214;2024-01-30T09:21:05;29.90;19.70
34815;DHT22;21030;53.912;15.214;2024-01-30T09:23:32;30.30;19.70
34815;DHT22;21030;53.912;15.214;2024-01-30T09:25:59;30.10;19.60
34815;DHT22;21030;53.912;15.214;2024-01-30T09:28:26;30.30;19.70
34815;DHT22;21030;53.912;15.214;2024-01-30T09:30:54;30.30;19.70
34815;DHT22;21030;53.912;15.214;2024-01-30T09:33:21;30.60;19.80
34815;DHT22;21030;53.912;15.214;2024-01-30T09:35:48;31.60;19.50
34815;DHT22;21030;53.912;15.214;2024-01-30T09:38:15;31.20;19.00
34815;DHT22;21030;53.912;15.214;2024-01-30T09:40:42;31.50;19.20
34815;DHT22;21030;53.912;15.214;2024-01-30T09:43:11;31.90;19.20
34815;DHT22;21030;53.912;15.214;2024-01-30T09:45:44;31.60;18.90
34815;DHT22;21030;53.912;15.214;2024-01-30T09:48:13;30.60;19.10
34815;DHT22;21030;53.912;15.214;2024-01-30T09:50:42;31.00;19.50
34815;DHT22;21030;53.912;15.214;2024-01-30T09:53:09;30.10;19.80
34815;DHT22;21030;53.912;15.214;2024-01-30T09:55:37;30.40;19.70
34815;DHT22;21030;53.912;15.214;2024-01-30T09:58:05;29.70;19.70
34815;DHT22;21030;53.912;15.214;2024-01-30T10:00:32;29.30;20.20
34815;DHT22;21030;53.912;15.214;2024-01-30T10:02:59;28.60;20.70
34815;DHT22;21030;53.912;15.214;2024-01-30T10:05:31;29.60;20.90
34815;DHT22;21030;53.912;15.214;2024-01-30T10:08:00;29.70;20.50
34815;DHT22;21030;53.912;15.214;2024-01-30T10:10:28;30.00;20.40
34815;DHT22;21030;53.912;15.214;2024-01-30T10:12:56;30.50;20.20
34815;DHT22;21030;53.912;15.214;2024-01-30T10:15:23;30.70;20.10
34815;DHT22;21030;53.912;15.214;2024-01-30T10:17:50;31.00;20.20
34815;DHT22;21030;53.912;15.214;2024-01-30T10:20:18;30.80;19.70
34815;DHT22;21030;53.912;15.214;2024-01-30T10:22:46;30.80;19.90
34815;DHT22;21030;53.912;15.214;2024-01-30T10:25:15;30.90;19.60
34815;DHT22;21030;53.912;15.214;2024-01-30T10:27:43;30.90;20.10
34815;DHT22;21030;53.912;15.214;2024-01-30T10:30:10;31.70;19.70
34815;DHT22;21030;53.912;15.214;2024-01-30T10:32:37;31.00;19.50
34815;DHT22;21030;53.912;15.214;2024-01-30T10:35:04;30.90;20.00
34815;DHT22;21030;53.912;15.214;2024-01-30T10:37:32;31.40;20.00
34815;DHT22;21030;53.912;15.214;2024-01-30T10:40:03;31.40;19.60
34815;DHT22;21030;53.912;15.214;2024-01-30T10:42:53;31.20;19.90
34815;DHT22;21030;53.912;15.214;2024-01-30T10:45:23;31.30;19.90
34815;DHT22;21030;53.912;15.214;2024-01-30T10:47:55;31.60;19.70
34815;DHT22;21030;53.912;15.214;2024-01-30T10:50:25;31.30;19.80
34815;DHT22;21030;53.912;15.214;2024-01-30T10:52:54;31.00;20.30
34815;DHT22;21030;53.912;15.214;2024-01-30T10:55:22;31.10;20.00
34815;DHT22;21030;53.912;15.214;2024-01-30T10:57:50;31.40;20.20
34815;DHT22;21030;53.912;15.214;2024-01-30T11:00:21;31.10;20.00
34815;DHT22;21030;53.912;15.214;2024-01-30T11:02:50;31.20;19.90
34815;DHT22;21030;53.912;15.214;2024-01-30T11:05:25;30.20;20.10
34815;DHT22;21030;53.912;15.214;2024-01-30T11:07:59;29.90;20.70
34815;DHT22;21030;53.912;15.214;2024-01-30T11:10:47;31.00;20.70
34815;DHT22;21030;53.912;15.214;2024-01-30T11:13:15;30.70;20.10
34815;DHT22;21030;53.912;15.214;2024-01-30T11:15:43;31.00;20.30
34815;DHT22;21030;53.912;15.214;2024-01-30T11:18:10;31.20;20.20
34815;DHT22;21030;53.912;15.214;2024-01-30T11:20:37;30.90;20.40
34815;DHT22;21030;53.912;15.214;2024-01-30T11:23:04;30.40;20.40
34815;DHT22;21030;53.912;15.214;2024-01-30T11:25:34;30.30;20.70
34815;DHT22;21030;53.912;15.214;2024-01-30T11:28:02;30.10;20.90
34815;DHT22;21030;53.912;15.214;2024-01-30T11:30:30;30.60;20.90
34815;DHT22;21030;53.912;15.214;2024-01-30T11:33:27;30.40;20.80
34815;DHT22;21030;53.912;15.214;2024-01-30T11:36:00;29.80;21.20
34815;DHT22;21030;53.912;15.214;2024-01-30T11:38:29;29.70;21.40
34815;DHT22;21030;53.912;15.214;2024-01-30T11:40:56;30.10;21.30
34815;DHT22;21030;53.912;15.214;2024-01-30T11:43:24;29.50;21.30
34815;DHT22;21030;53.912;15.214;2024-01-30T11:45:51;29.20;21.40
34815;DHT22;21030;53.912;15.214;2024-01-30T11:48:22;29.70;21.20
34815;DHT22;21030;53.912;15.214;2024-01-30T11:50:50;30.10;21.30
34815;DHT22;21030;53.912;15.214;2024-01-30T11:53:18;29.80;21.30
34815;DHT22;21030;53.912;15.214;2024-01-30T11:55:51;29.60;21.80
34815;DHT22;21030;53.912;15.214;2024-01-30T11:58:19;29.20;21.70
34815;DHT22;21030;53.912;15.214;2024-01-30T12:00:56;29.40;22.10
34815;DHT22;21030;53.912;15.214;2024-01-30T12:03:24;30.20;21.50
34815;DHT22;21030;53.912;15.214;2024-01-30T12:06:00;30.60;21.30
34815;DHT22;21030;53.912;15.214;2024-01-30T12:08:30;30.60;21.20
34815;DHT22;21030;53.912;15.214;2024-01-30T12:10:58;30.40;21.00
34815;DHT22;21030;53.912;15.214;2024-01-30T12:13:29;30.70;21.20
34815;DHT22;21030;53.912;15.214;2024-01-30T12:16:00;30.20;21.00
34815;DHT22;21030;53.912;15.214;2024-01-30T12:18:28;30.70;21.10
34815;DHT22;21030;53.912;15.214;2024-01-30T12:21:01;30.90;21.20
34815;DHT22;21030;53.912;15.214;2024-01-30T12:23:29;29.50;21.70
34815;DHT22;21030;53.912;15.214;2024-01-30T12:25:57;28.50;22.50
34815;DHT22;21030;53.912;15.214;2024-01-30T12:28:24;27.90;23.10
34815;DHT22;21030;53.912;15.214;2024-01-30T12:30:56;27.60;24.40
34815;DHT22;21030;53.912;15.214;2024-01-30T12:33:26;28.00;23.60
34815;DHT22;21030;53.912;15.214;2024-01-30T12:35:55;28.80;23.20
34815;DHT22;21030;53.912;15.214;2024-01-30T12:38:29;29.50;22.50
34815;DHT22;21030;53.912;15.214;2024-01-30T12:40:56;30.40;22.20
34815;DHT22;21030;53.912;15.214;2024-01-30T12:43:25;31.30;21.60
34815;DHT22;21030;53.912;15.214;2024-01-30T12:46:04;32.00;20.90
34815;DHT22;21030;53.912;15.214;2024-01-30T12:48:31;31.50;21.10
34815;DHT22;21030;53.912;15.214;2024-01-30T12:50:59;31.70;21.10
34815;DHT22;21030;53.912;15.214;2024-01-30T12:53:26;31.80;21.00
34815;DHT22;21030;53.912;15.214;2024-01-30T12:55:53;31.40;21.10
34815;DHT22;21030;53.912;15.214;2024-01-30T12:58:21;31.70;21.10
34815;DHT22;21030;53.912;15.214;2024-01-30T13:00:48;31.70;20.90
34815;DHT22;21030;53.912;15.214;2024-01-30T13:03:16;31.30;21.10
34815;DHT22;21030;53.912;15.214;2024-01-30T13:05:43;29.30;21.80
34815;DHT22;21030;53.912;15.214;2024-01-30T13:08:10;29.00;22.70
34815;DHT22;21030;53.912;15.214;2024-01-30T13:10:37;29.00;22.70
34815;DHT22;21030;53.912;15.214;2024-01-30T13:13:05;28.50;22.80
34815;DHT22;21030;53.912;15.214;2024-01-30T13:15:42;28.50;23.30
34815;DHT22;21030;53.912;15.214;2024-01-30T13:18:09;28.70;23.50
34815;DHT22;21030;53.912;15.214;2024-01-30T13:20:37;29.00;23.00
34815;DHT22;21030;53.912;15.214;2024-01-30T13:23:04;27.70;23.60
34815;DHT22;21030;53.912;15.214;2024-01-30T13:25:31;27.40;24.20
34815;DHT22;21030;53.912;15.214;2024-01-30T13:27:58;27.90;23.80
34815;DHT22;21030;53.912;15.214;2024-01-30T13:30:25;28.90;23.20
34815;DHT22;21030;53.912;15.214;2024-01-30T13:32:52;28.80;23.10
34815;DHT22;21030;53.912;15.214;2024-01-30T13:35:21;28.60;22.80
34815;DHT22;21030;53.912;15.214;2024-01-30T13:37:48;28.80;22.40
34815;DHT22;21030;53.912;15.214;2024-01-30T13:40:15;29.30;22.50
34815;DHT22;21030;53.912;15.214;2024-01-30T13:42:43;29.60;22.40
34815;DHT22;21030;53.912;15.214;2024-01-30T13:45:10;30.10;22.20
34815;DHT22;21030;53.912;15.214;2024-01-30T13:47:38;30.00;22.20
34815;DHT22;21030;53.912;15.214;2024-01-30T13:50:06;29.40;22.20
34815;DHT22;21030;53.912;15.214;2024-01-30T13:52:33;29.40;22.40
34815;DHT22;21030;53.912;15.214;2024-01-30T13:55:10;29.20;22.40
34815;DHT22;21030;53.912;15.214;2024-01-30T13:57:38;29.00;22.60
34815;DHT22;21030;53.912;15.214;2024-01-30T14:00:05;29.00;22.80
34815;DHT22;21030;53.912;15.214;2024-01-30T14:02:34;29.30;22.50
34815;DHT22;21030;53.912;15.214;2024-01-30T14:05:01;29.40;22.40
34815;DHT22;21030;53.912;15.214;2024-01-30T14:07:28;29.00;22.50
34815;DHT22;21030;53.912;15.214;2024-01-30T14:09:56;28.30;24.10
34815;DHT22;21030;53.912;15.214;2024-01-30T14:12:23;28.40;23.40
34815;DHT22;21030;53.912;15.214;2024-01-30T14:14:50;28.70;23.20
34815;DHT22;21030;53.912;15.214;2024-01-30T14:17:18;27.60;23.60
34815;DHT22;21030;53.912;15.214;2024-01-30T14:19:45;27.30;24.20
34815;DHT22;21030;53.912;15.214;2024-01-30T14:22:12;28.00;23.70
34815;DHT22;21030;53.912;15.214;2024-01-30T14:24:39;28.50;23.20
34815;DHT22;21030;53.912;15.214;2024-01-30T14:27:07;27.90;23.50
34815;DHT22;21030;53.912;15.214;2024-01-30T14:29:35;28.50;23.40
34815;DHT22;21030;53.912;15.214;2024-01-30T14:32:02;29.10;23.20
34815;DHT22;21030;53.912;15.214;2024-01-30T14:34:31;28.70;22.80
34815;DHT22;21030;53.912;15.214;2024-01-30T14:36:58;28.80;22.80
34815;DHT22;21030;53.912;15.214;2024-01-30T14:39:25;29.10;22.90
34815;DHT22;21030;53.912;15.214;2024-01-30T14:41:52;27.50;23.30
34815;DHT22;21030;53.912;15.214;2024-01-30T14:44:19;27.40;24.00
34815;DHT22;21030;53.912;15.214;2024-01-30T14:46:46;27.00;24.60
34815;DHT22;21030;53.912;15.214;2024-01-30T14:49:13;27.20;24.50
34815;DHT22;21030;53.912;15.214;2024-01-30T14:51:42;27.20;24.40
34815;DHT22;21030;53.912;15.214;2024-01-30T14:54:09;27.40;24.40
34815;DHT22;21030;53.912;15.214;2024-01-30T14:56:36;27.90;24.00
34815;DHT22;21030;53.912;15.214;2024-01-30T14:59:03;28.90;23.20
34815;DHT22;21030;53.912;15.214;2024-01-30T15:01:31;30.00;22.60
34815;DHT22;21030;53.912;15.214;2024-01-30T15:03:58;29.90;22.10
34815;DHT22;21030;53.912;15.214;2024-01-30T15:06:26;29.80;22.00
34815;DHT22;21030;53.912;15.214;2024-01-30T15:08:53;30.40;22.00
34815;DHT22;21030;53.912;15.214;2024-01-30T15:11:21;30.40;21.60
34815;DHT22;21030;53.912;15.214;2024-01-30T15:13:48;30.20;21.60
34815;DHT22;21030;53.912;15.214;2024-01-30T15:16:16;29.50;22.10
34815;DHT22;21030;53.912;15.214;2024-01-30T15:18:43;29.50;22.20
34815;DHT22;21030;53.912;15.214;2024-01-30T15:21:11;30.00;22.20